Time;durP1;ratioP1;P1;durP2;ratioP2;P2;SDS_P1;SDS_P2;PMS_P1;PMS_P2;Temp;Humidity;BMP_temperature;BMP_pressure;BME280_temperature;BME280_humidity;BME280_pressure;Samples;Min_cycle;Max_cycle;Signal;HPM_P1;HPM_P2
2021/01/31 00:02:21;;;;;;;43.72;15.98;;;;;;;;;;4972596;28;20034;-80
2021/01/31 00:04:48;;;;;;;36.15;15.15;;;;;;;;;;5035688;28;20063;-80
2021/01/31 00:07:18;;;;;;;27.10;11.60;;;;;;;;;;4981447;28;20019;-79
2021/01/31 00:09:43;;;;;;;37.00;14.02;;;;;;;;;;5034267;28;20033;-80
2021/01/31 00:12:10;;;;;;;45.15;14.27;;;;;;;;;;4987402;28;20723;-79
2021/01/31 00:14:38;;;;;;;36.22;13.35;;;;;;;;;;5046596;28;20132;-79
2021/01/31 00:17:04;;;;;;;49.35;14.35;;;;;;;;;;5059897;28;20150;-78
2021/01/31 00:19:29;;;;;;;49.85;15.77;;;;;;;;;;5043268;28;20123;-79
2021/01/31 00:21:56;;;;;;;44.47;14.88;;;;;;;;;;5061279;28;20040;-79
2021/01/31 00:24:21;;;;;;;36.20;14.65;;;;;;;;;;5056019;28;20119;-78
2021/01/31 00:26:47;;;;;;;38.28;14.38;;;;;;;;;;5057580;28;20565;-79
2021/01/31 00:29:12;;;;;;;39.70;16.60;;;;;;;;;;5043272;28;20036;-78
2021/01/31 00:31:38;;;;;;;43.28;14.25;;;;;;;;;;5033410;28;20028;-80
2021/01/31 00:34:03;;;;;;;39.45;12.30;;;;;;;;;;5058650;28;20511;-78
2021/01/31 00:36:29;;;;;;;40.85;13.75;;;;;;;;;;5040628;28;20513;-80
2021/01/31 00:38:54;;;;;;;41.33;14.65;;;;;;;;;;5048391;28;20063;-81
2021/01/31 00:41:22;;;;;;;35.75;12.93;;;;;;;;;;5055097;28;20021;-80
2021/01/31 00:43:47;;;;;;;39.15;14.43;;;;;;;;;;5026796;28;20047;-80
2021/01/31 00:46:12;;;;;;;42.90;12.80;;;;;;;;;;5041147;28;20028;-79
2021/01/31 00:48:38;;;;;;;34.65;12.55;;;;;;;;;;5050001;28;20051;-79
2021/01/31 00:51:06;;;;;;;37.90;13.10;;;;;;;;;;5050140;28;20029;-78
2021/01/31 00:53:31;;;;;;;42.47;15.63;;;;;;;;;;5057629;28;20171;-79
2021/01/31 00:55:57;;;;;;;37.33;13.90;;;;;;;;;;5057269;28;20037;-77
2021/01/31 00:58:22;;;;;;;43.08;14.35;;;;;;;;;;5042938;28;20033;-78
2021/01/31 01:00:48;;;;;;;39.17;13.88;;;;;;;;;;5026888;28;20029;-79
2021/01/31 01:03:15;;;;;;;31.15;12.15;;;;;;;;;;5041438;28;20427;-80
2021/01/31 01:05:43;;;;;;;43.15;15.18;;;;;;;;;;5058316;28;20103;-80
2021/01/31 01:08:08;;;;;;;36.40;12.20;;;;;;;;;;5062884;28;20032;-81
2021/01/31 01:10:36;;;;;;;40.38;13.65;;;;;;;;;;5067338;28;20024;-79
2021/01/31 01:13:04;;;;;;;42.58;15.27;;;;;;;;;;5068569;28;20036;-81
2021/01/31 01:15:30;;;;;;;39.88;12.65;;;;;;;;;;5056280;28;20040;-79
2021/01/31 01:17:59;;;;;;;31.42;12.52;;;;;;;;;;5059413;28;20029;-79
2021/01/31 01:20:25;;;;;;;35.60;12.98;;;;;;;;;;5055076;28;20633;-79
2021/01/31 01:22:50;;;;;;;35.00;10.95;;;;;;;;;;5053493;28;20055;-80
2021/01/31 01:25:18;;;;;;;32.47;12.02;;;;;;;;;;5061260;28;20424;-80
2021/01/31 01:27:46;;;;;;;45.00;15.65;;;;;;;;;;5061676;28;20111;-81
2021/01/31 01:30:16;;;;;;;36.17;14.30;;;;;;;;;;5058789;28;20104;-78
2021/01/31 01:32:44;;;;;;;38.92;14.93;;;;;;;;;;5061943;28;20099;-81
2021/01/31 01:35:10;;;;;;;46.40;14.90;;;;;;;;;;5045526;28;20082;-82
2021/01/31 01:37:36;;;;;;;31.80;11.57;;;;;;;;;;5059033;28;20062;-80
2021/01/31 01:40:03;;;;;;;39.53;12.75;;;;;;;;;;5062697;28;20073;-79
2021/01/31 01:42:29;;;;;;;31.00;13.52;;;;;;;;;;5064193;28;20032;-79
2021/01/31 01:44:57;;;;;;;32.80;11.65;;;;;;;;;;5080542;28;20028;-80
2021/01/31 01:47:23;;;;;;;46.67;14.45;;;;;;;;;;5070881;28;20070;-79
2021/01/31 01:49:50;;;;;;;46.22;16.25;;;;;;;;;;5050237;28;20569;-79
2021/01/31 01:52:25;;;;;;;51.42;13.48;;;;;;;;;;5065443;28;20180;-79
2021/01/31 01:54:57;;;;;;;35.10;11.80;;;;;;;;;;5057691;28;20033;-79
2021/01/31 01:57:25;;;;;;;34.28;12.27;;;;;;;;;;5060445;28;20062;-77
2021/01/31 01:59:51;;;;;;;39.15;13.85;;;;;;;;;;5059873;28;20021;-79
2021/01/31 02:02:18;;;;;;;45.00;13.75;;;;;;;;;;5045041;28;20028;-78
2021/01/31 02:04:44;;;;;;;55.75;15.88;;;;;;;;;;5053103;28;20699;-79
2021/01/31 02:07:10;;;;;;;38.80;12.15;;;;;;;;;;5047135;28;20040;-79
2021/01/31 02:09:37;;;;;;;36.20;11.27;;;;;;;;;;5058986;28;20119;-80
2021/01/31 02:12:04;;;;;;;31.77;12.85;;;;;;;;;;5059663;28;20079;-78
2021/01/31 02:14:30;;;;;;;33.60;12.43;;;;;;;;;;5032539;28;20050;-79
2021/01/31 02:17:07;;;;;;;38.63;12.95;;;;;;;;;;5011690;28;20046;-77
2021/01/31 02:19:54;;;;;;;43.65;14.98;;;;;;;;;;5060389;28;20601;-79
2021/01/31 02:22:38;;;;;;;26.92;11.38;;;;;;;;;;5061616;28;20142;-80
2021/01/31 02:25:20;;;;;;;27.13;11.88;;;;;;;;;;4991803;28;20038;-81
2021/01/31 02:28:07;;;;;;;34.53;11.10;;;;;;;;;;5004539;28;20038;-81
2021/01/31 02:30:47;;;;;;;40.22;13.73;;;;;;;;;;5012678;28;20031;-80
2021/01/31 02:33:29;;;;;;;27.27;10.55;;;;;;;;;;4975068;28;20053;-79
2021/01/31 02:36:17;;;;;;;30.20;10.35;;;;;;;;;;4980967;28;20010;-80
2021/01/31 02:39:06;;;;;;;40.97;14.02;;;;;;;;;;4981024;28;20046;-79
2021/01/31 02:41:34;;;;;;;40.40;13.10;;;;;;;;;;4978198;28;20062;-79
2021/01/31 02:44:03;;;;;;;29.52;12.32;;;;;;;;;;5010011;28;20023;-79
2021/01/31 02:46:48;;;;;;;40.80;13.55;;;;;;;;;;4974446;28;20048;-79
2021/01/31 02:49:20;;;;;;;52.20;12.65;;;;;;;;;;5015552;28;20075;-80
2021/01/31 02:51:51;;;;;;;32.72;11.80;;;;;;;;;;4976244;28;20439;-77
2021/01/31 02:54:20;;;;;;;30.20;11.02;;;;;;;;;;5011834;28;20032;-79
2021/01/31 02:57:11;;;;;;;39.65;15.10;;;;;;;;;;4975612;28;20216;-78
2021/01/31 02:59:42;;;;;;;37.67;13.13;;;;;;;;;;5027386;28;20665;-79
2021/01/31 03:02:12;;;;;;;32.47;13.98;;;;;;;;;;4984103;28;20192;-80
2021/01/31 03:04:46;;;;;;;32.55;11.45;;;;;;;;;;5031683;28;20493;-80
2021/01/31 03:07:18;;;;;;;30.23;10.73;;;;;;;;;;5018619;28;20025;-81
2021/01/31 03:09:50;;;;;;;45.40;12.45;;;;;;;;;;4972466;28;20031;-78
2021/01/31 03:12:22;;;;;;;25.05;12.35;;;;;;;;;;4972675;28;20034;-78
2021/01/31 03:14:51;;;;;;;29.40;9.13;;;;;;;;;;4973986;28;20133;-78
2021/01/31 03:17:21;;;;;;;27.00;9.48;;;;;;;;;;5017783;28;20029;-80
2021/01/31 03:19:56;;;;;;;40.13;14.55;;;;;;;;;;5000620;28;20027;-78
2021/01/31 03:22:27;;;;;;;29.85;11.02;;;;;;;;;;5042311;28;20021;-78
2021/01/31 03:24:56;;;;;;;34.33;12.30;;;;;;;;;;5039171;28;20139;-78
2021/01/31 03:27:24;;;;;;;28.77;9.70;;;;;;;;;;5010829;28;20050;-79
2021/01/31 03:29:50;;;;;;;22.92;9.60;;;;;;;;;;4997739;28;20033;-80
2021/01/31 03:32:23;;;;;;;27.05;10.55;;;;;;;;;;5053442;28;20028;-79
2021/01/31 03:34:56;;;;;;;25.55;11.65;;;;;;;;;;5035467;28;20036;-79
2021/01/31 03:37:28;;;;;;;24.70;8.90;;;;;;;;;;4978260;28;20034;-80
2021/01/31 03:39:57;;;;;;;23.08;7.72;;;;;;;;;;5010215;28;20080;-82
2021/01/31 03:42:23;;;;;;;25.08;11.48;;;;;;;;;;4977735;28;20098;-77
2021/01/31 03:44:56;;;;;;;25.55;10.15;;;;;;;;;;4974893;28;20027;-80
2021/01/31 03:47:26;;;;;;;32.92;12.07;;;;;;;;;;4972251;28;20022;-83
2021/01/31 03:49:54;;;;;;;29.98;10.35;;;;;;;;;;5032803;28;20025;-78
2021/01/31 03:52:19;;;;;;;23.73;10.05;;;;;;;;;;4979482;28;20037;-80
2021/01/31 03:54:49;;;;;;;23.42;9.68;;;;;;;;;;4972941;28;20109;-82
2021/01/31 03:57:22;;;;;;;25.45;10.55;;;;;;;;;;4976991;28;20030;-81
2021/01/31 04:00:09;;;;;;;29.33;10.15;;;;;;;;;;5023485;28;20017;-79
2021/01/31 04:02:38;;;;;;;26.35;9.95;;;;;;;;;;5056642;28;20101;-78
2021/01/31 04:05:04;;;;;;;33.47;12.98;;;;;;;;;;5021399;28;20494;-78
2021/01/31 04:07:35;;;;;;;25.50;9.18;;;;;;;;;;5007351;28;20052;-79
2021/01/31 04:10:03;;;;;;;27.08;11.70;;;;;;;;;;4971558;28;20483;-78
2021/01/31 04:12:32;;;;;;;33.08;10.75;;;;;;;;;;4971974;28;20037;-80
2021/01/31 04:15:09;;;;;;;21.23;9.07;;;;;;;;;;5040039;28;20037;-79
2021/01/31 04:17:39;;;;;;;23.60;9.05;;;;;;;;;;5015162;28;20083;-81
2021/01/31 04:20:06;;;;;;;22.55;10.27;;;;;;;;;;5045699;28;20028;-79
2021/01/31 04:22:33;;;;;;;21.15;9.45;;;;;;;;;;5016449;28;20107;-83
2021/01/31 04:25:02;;;;;;;29.35;11.52;;;;;;;;;;4975659;28;20487;-80
2021/01/31 04:27:32;;;;;;;26.52;9.88;;;;;;;;;;4974961;28;20042;-81
2021/01/31 04:29:57;;;;;;;29.33;11.30;;;;;;;;;;5042357;28;20033;-80
2021/01/31 04:32:22;;;;;;;22.85;9.95;;;;;;;;;;5026220;28;20118;-79
2021/01/31 04:34:48;;;;;;;25.27;9.98;;;;;;;;;;5025346;28;20061;-78
2021/01/31 04:37:13;;;;;;;26.25;10.30;;;;;;;;;;5021196;28;20110;-81
2021/01/31 04:39:39;;;;;;;26.48;11.50;;;;;;;;;;5035165;28;20052;-82
2021/01/31 04:42:05;;;;;;;24.70;9.85;;;;;;;;;;5053401;28;20032;-81
2021/01/31 04:44:33;;;;;;;24.63;12.13;;;;;;;;;;5006056;28;20091;-78
2021/01/31 04:47:03;;;;;;;25.17;9.93;;;;;;;;;;4971691;28;20031;-80
2021/01/31 04:49:29;;;;;;;32.40;10.35;;;;;;;;;;4974494;28;20167;-80
2021/01/31 04:51:57;;;;;;;23.58;9.00;;;;;;;;;;5007780;28;20135;-78
2021/01/31 04:54:47;;;;;;;25.27;8.77;;;;;;;;;;5056737;28;20043;-78
2021/01/31 04:57:16;;;;;;;17.98;9.18;;;;;;;;;;5053881;28;20060;-80
2021/01/31 04:59:47;;;;;;;27.80;10.20;;;;;;;;;;5008736;28;20030;-81
2021/01/31 05:02:31;;;;;;;27.20;9.48;;;;;;;;;;4974910;28;20034;-81
2021/01/31 05:04:58;;;;;;;25.60;11.02;;;;;;;;;;4975423;28;20263;-78
2021/01/31 05:07:36;;;;;;;24.67;8.70;;;;;;;;;;4974995;28;20043;-78
2021/01/31 05:10:02;;;;;;;17.45;6.20;;;;;;;;;;4976373;28;20030;-79
2021/01/31 05:12:48;;;;;;;25.75;10.38;;;;;;;;;;4969934;28;20076;-80
2021/01/31 05:15:21;;;;;;;16.45;6.53;;;;;;;;;;4977253;28;20066;-79
2021/01/31 05:17:51;;;;;;;25.08;8.25;;;;;;;;;;4977210;28;20101;-81
2021/01/31 05:20:20;;;;;;;19.92;8.70;;;;;;;;;;4989077;28;20646;-79
2021/01/31 05:22:47;;;;;;;30.70;11.48;;;;;;;;;;5001044;28;20035;-80
2021/01/31 05:25:17;;;;;;;15.95;7.75;;;;;;;;;;4975548;28;20018;-79
2021/01/31 05:27:45;;;;;;;30.70;10.38;;;;;;;;;;4973891;28;20026;-80
2021/01/31 05:30:11;;;;;;;25.23;9.68;;;;;;;;;;5015604;28;22096;-80
2021/01/31 05:32:59;;;;;;;14.50;6.15;;;;;;;;;;5046404;28;20056;-81
2021/01/31 05:35:27;;;;;;;20.02;8.68;;;;;;;;;;5057037;28;20039;-80
2021/01/31 05:37:53;;;;;;;24.08;8.93;;;;;;;;;;4998419;28;20030;-80
2021/01/31 05:40:32;;;;;;;28.42;10.70;;;;;;;;;;5028821;28;20057;-80
2021/01/31 05:43:03;;;;;;;22.95;8.35;;;;;;;;;;5024871;28;20050;-79
2021/01/31 05:45:33;;;;;;;18.00;8.32;;;;;;;;;;5012356;28;20031;-78
2021/01/31 05:48:00;;;;;;;20.98;9.25;;;;;;;;;;5045364;28;20048;-80
2021/01/31 05:50:33;;;;;;;15.80;8.00;;;;;;;;;;4978064;28;20034;-80
2021/01/31 05:53:19;;;;;;;19.98;8.20;;;;;;;;;;4986018;28;20573;-82
2021/01/31 05:55:47;;;;;;;18.60;6.70;;;;;;;;;;4976532;28;20056;-80
2021/01/31 05:58:17;;;;;;;16.20;6.22;;;;;;;;;;4976692;28;20018;-79
2021/01/31 06:00:43;;;;;;;17.02;7.60;;;;;;;;;;5031932;28;20043;-77
2021/01/31 06:03:21;;;;;;;16.15;6.88;;;;;;;;;;4984887;28;20026;-79
2021/01/31 06:05:47;;;;;;;10.63;5.13;;;;;;;;;;5014370;28;20036;-79
2021/01/31 06:08:28;;;;;;;13.98;6.35;;;;;;;;;;4976113;28;21899;-80
2021/01/31 06:11:04;;;;;;;20.90;7.63;;;;;;;;;;5004803;28;20021;-80
2021/01/31 06:13:30;;;;;;;16.10;5.80;;;;;;;;;;4975972;28;20371;-78
2021/01/31 06:16:01;;;;;;;22.65;8.40;;;;;;;;;;5037517;28;20052;-79
2021/01/31 06:18:29;;;;;;;21.42;8.23;;;;;;;;;;5044223;28;20045;-80
2021/01/31 06:21:07;;;;;;;16.50;8.63;;;;;;;;;;5040495;28;20025;-79
2021/01/31 06:23:40;;;;;;;23.17;8.65;;;;;;;;;;5000742;28;20031;-80
2021/01/31 06:26:08;;;;;;;14.68;5.95;;;;;;;;;;5042376;28;20028;-77
2021/01/31 06:28:42;;;;;;;14.48;7.07;;;;;;;;;;4989800;28;20700;-79
2021/01/31 06:31:20;;;;;;;16.02;6.57;;;;;;;;;;5027692;28;20090;-79
2021/01/31 06:33:46;;;;;;;14.45;5.63;;;;;;;;;;5037029;28;20042;-79
2021/01/31 06:36:25;;;;;;;17.80;7.65;;;;;;;;;;5052798;28;20026;-80
2021/01/31 06:39:06;;;;;;;20.80;7.18;;;;;;;;;;5028472;28;20063;-80
2021/01/31 06:41:34;;;;;;;10.90;5.43;;;;;;;;;;5026310;28;20153;-79
2021/01/31 06:44:18;;;;;;;16.48;7.28;;;;;;;;;;5038764;28;20110;-78
2021/01/31 06:46:57;;;;;;;14.85;7.20;;;;;;;;;;5000657;28;20469;-78
2021/01/31 06:49:28;;;;;;;21.77;8.07;;;;;;;;;;4977276;28;20118;-78
2021/01/31 06:52:00;;;;;;;12.98;6.70;;;;;;;;;;4975351;28;20079;-78
2021/01/31 06:54:44;;;;;;;16.13;6.75;;;;;;;;;;4972077;28;20092;-79
2021/01/31 06:57:13;;;;;;;13.50;6.97;;;;;;;;;;5006905;28;20053;-79
2021/01/31 07:00:01;;;;;;;14.80;6.05;;;;;;;;;;5010101;28;20035;-79
2021/01/31 07:02:29;;;;;;;11.43;5.68;;;;;;;;;;4974034;28;20538;-81
2021/01/31 07:05:04;;;;;;;16.08;5.47;;;;;;;;;;5036394;28;20166;-81
2021/01/31 07:07:48;;;;;;;13.20;6.00;;;;;;;;;;4976742;28;20030;-81
2021/01/31 07:10:31;;;;;;;13.77;6.28;;;;;;;;;;5056736;28;20040;-80
2021/01/31 07:13:15;;;;;;;11.63;5.20;;;;;;;;;;5027207;28;20491;-80
2021/01/31 07:15:48;;;;;;;16.38;5.85;;;;;;;;;;5045581;28;20046;-79
2021/01/31 07:18:16;;;;;;;24.30;13.63;;;;;;;;;;5076389;28;20028;-79
2021/01/31 07:20:45;;;;;;;17.05;8.98;;;;;;;;;;5075389;28;20370;-79
2021/01/31 07:23:14;;;;;;;18.30;7.32;;;;;;;;;;5077815;28;20512;-79
2021/01/31 07:25:42;;;;;;;18.42;7.18;;;;;;;;;;5078739;28;20031;-79
2021/01/31 07:28:16;;;;;;;17.60;8.15;;;;;;;;;;5076934;28;20597;-79
2021/01/31 07:31:05;;;;;;;19.00;6.72;;;;;;;;;;5076504;28;20444;-80
2021/01/31 07:33:49;;;;;;;16.15;7.47;;;;;;;;;;5041548;28;20600;-79
2021/01/31 07:36:18;;;;;;;12.48;5.88;;;;;;;;;;5077708;28;20610;-78
2021/01/31 07:38:43;;;;;;;15.65;6.60;;;;;;;;;;5076789;28;20039;-80
2021/01/31 07:41:09;;;;;;;19.13;7.00;;;;;;;;;;5075795;28;20047;-80
2021/01/31 07:43:38;;;;;;;15.00;6.60;;;;;;;;;;5055487;28;20020;-80
2021/01/31 07:46:09;;;;;;;15.48;6.45;;;;;;;;;;5077252;28;20030;-78
2021/01/31 07:48:39;;;;;;;12.95;7.05;;;;;;;;;;5054034;28;20115;-80
2021/01/31 07:51:08;;;;;;;13.50;5.65;;;;;;;;;;5060506;28;20038;-81
2021/01/31 07:53:40;;;;;;;14.73;6.22;;;;;;;;;;5062487;28;20109;-81
2021/01/31 07:56:26;;;;;;;15.90;6.75;;;;;;;;;;5078567;28;21488;-79
2021/01/31 07:58:57;;;;;;;19.52;6.78;;;;;;;;;;5036879;28;20043;-79
2021/01/31 08:01:41;;;;;;;21.35;8.57;;;;;;;;;;5074170;28;20073;-79
2021/01/31 08:04:16;;;;;;;13.50;5.83;;;;;;;;;;5077847;28;20039;-79
2021/01/31 08:06:49;;;;;;;17.90;7.75;;;;;;;;;;5059680;28;20300;-78
2021/01/31 08:09:24;;;;;;;18.17;7.05;;;;;;;;;;5056576;28;20024;-79
2021/01/31 08:11:54;;;;;;;21.08;7.65;;;;;;;;;;5051835;28;20035;-81
2021/01/31 08:14:38;;;;;;;21.33;8.27;;;;;;;;;;5077175;28;20480;-79
2021/01/31 08:17:08;;;;;;;23.27;8.52;;;;;;;;;;5076816;28;20040;-79
2021/01/31 08:19:36;;;;;;;18.73;8.10;;;;;;;;;;5060726;28;20052;-80
2021/01/31 08:22:09;;;;;;;16.52;8.07;;;;;;;;;;5077454;28;20047;-79
2021/01/31 08:24:53;;;;;;;21.70;7.10;;;;;;;;;;5040692;28;20117;-79
2021/01/31 08:27:41;;;;;;;17.17;8.57;;;;;;;;;;5063852;28;20040;-81
2021/01/31 08:30:13;;;;;;;16.67;6.50;;;;;;;;;;5057011;28;20029;-82
2021/01/31 08:32:57;;;;;;;23.80;9.98;;;;;;;;;;5070635;28;20042;-81
2021/01/31 08:35:36;;;;;;;22.15;9.02;;;;;;;;;;5076100;28;20028;-80
2021/01/31 08:38:15;;;;;;;17.85;7.20;;;;;;;;;;5081184;28;20020;-82
2021/01/31 08:41:01;;;;;;;23.10;9.38;;;;;;;;;;5060907;28;21399;-79
2021/01/31 08:43:33;;;;;;;26.58;8.50;;;;;;;;;;5076109;28;20031;-80
2021/01/31 08:46:09;;;;;;;26.25;8.45;;;;;;;;;;5075472;28;20385;-79
2021/01/31 08:48:35;;;;;;;23.08;9.00;;;;;;;;;;5032252;28;20031;-80
2021/01/31 08:51:07;;;;;;;21.25;9.00;;;;;;;;;;5052709;28;20031;-77
2021/01/31 08:53:34;;;;;;;24.83;9.80;;;;;;;;;;5034664;28;20437;-79
2021/01/31 08:56:20;;;;;;;23.38;8.85;;;;;;;;;;5073845;28;20032;-80
2021/01/31 08:58:46;;;;;;;22.38;9.38;;;;;;;;;;5045217;28;20123;-78
2021/01/31 09:01:13;;;;;;;32.25;10.50;;;;;;;;;;5074969;28;20044;-81
2021/01/31 09:03:40;;;;;;;22.90;9.02;;;;;;;;;;5057256;28;20036;-80
2021/01/31 09:06:05;;;;;;;23.35;8.50;;;;;;;;;;5057415;28;20453;-80
2021/01/31 09:08:31;;;;;;;20.33;7.65;;;;;;;;;;5075022;28;20044;-80
2021/01/31 09:10:56;;;;;;;31.50;10.52;;;;;;;;;;5074840;28;20496;-80
2021/01/31 09:13:25;;;;;;;18.15;7.75;;;;;;;;;;5044578;28;20135;-80
2021/01/31 09:15:51;;;;;;;22.55;8.70;;;;;;;;;;5075342;28;20113;-79
2021/01/31 09:18:22;;;;;;;22.17;8.80;;;;;;;;;;5075335;28;20353;-79
2021/01/31 09:20:48;;;;;;;23.17;10.13;;;;;;;;;;5075253;28;20034;-80
2021/01/31 09:23:18;;;;;;;23.65;8.70;;;;;;;;;;5059487;28;20518;-80
2021/01/31 09:25:44;;;;;;;20.98;9.02;;;;;;;;;;5074042;28;20032;-79
2021/01/31 09:28:19;;;;;;;19.25;9.00;;;;;;;;;;5074482;28;20012;-79
2021/01/31 09:30:45;;;;;;;22.85;7.90;;;;;;;;;;4994880;28;20055;-81
2021/01/31 09:33:14;;;;;;;25.70;9.27;;;;;;;;;;5063971;28;20080;-79
2021/01/31 09:39:09;;;;;;;22.50;7.13;;;;;;;;;;5065412;28;20036;-80
2021/01/31 09:41:39;;;;;;;20.00;7.53;;;;;;;;;;5058971;28;20598;-79
2021/01/31 09:44:09;;;;;;;17.63;7.45;;;;;;;;;;5041416;28;20119;-80
2021/01/31 09:46:39;;;;;;;16.90;7.70;;;;;;;;;;5067963;28;20085;-81
2021/01/31 09:49:04;;;;;;;20.83;8.25;;;;;;;;;;5061585;28;20024;-79
2021/01/31 09:51:34;;;;;;;17.90;8.45;;;;;;;;;;5059537;28;20036;-79
2021/01/31 09:54:13;;;;;;;21.83;9.10;;;;;;;;;;5060070;28;20027;-80
2021/01/31 09:56:45;;;;;;;16.17;8.10;;;;;;;;;;5057440;28;20052;-78
2021/01/31 09:59:28;;;;;;;18.45;7.82;;;;;;;;;;4980216;28;20047;-80
2021/01/31 10:02:01;;;;;;;33.35;14.40;;;;;;;;;;5060546;28;20020;-79
2021/01/31 10:04:26;;;;;;;14.13;7.03;;;;;;;;;;5060133;28;20032;-81
2021/01/31 10:07:14;;;;;;;18.65;7.68;;;;;;;;;;5080249;28;20138;-80
2021/01/31 10:09:50;;;;;;;16.60;7.15;;;;;;;;;;5053293;28;20659;-80
2021/01/31 10:12:27;;;;;;;12.95;6.45;;;;;;;;;;5054070;28;20028;-80
2021/01/31 10:15:01;;;;;;;14.35;6.65;;;;;;;;;;5057634;28;20389;-82
2021/01/31 10:17:39;;;;;;;16.30;7.10;;;;;;;;;;5060523;28;20036;-81
2021/01/31 10:20:24;;;;;;;14.48;6.47;;;;;;;;;;4985182;28;20034;-80
2021/01/31 10:22:55;;;;;;;10.35;5.22;;;;;;;;;;5075083;28;20107;-81
2021/01/31 10:25:25;;;;;;;12.30;5.68;;;;;;;;;;5077299;28;20016;-78
2021/01/31 10:27:51;;;;;;;13.25;6.18;;;;;;;;;;5076908;28;20030;-79
2021/01/31 10:30:18;;;;;;;14.85;6.93;;;;;;;;;;5047774;28;20023;-80
2021/01/31 10:32:44;;;;;;;10.48;5.43;;;;;;;;;;5060061;28;20024;-80
2021/01/31 10:35:31;;;;;;;11.77;5.35;;;;;;;;;;5041144;28;20032;-80
2021/01/31 10:38:18;;;;;;;11.93;5.78;;;;;;;;;;5057112;28;21266;-80
2021/01/31 10:40:44;;;;;;;14.88;5.80;;;;;;;;;;4998247;28;20125;-79
2021/01/31 10:43:17;;;;;;;14.25;6.57;;;;;;;;;;5053822;28;20040;-81
2021/01/31 10:45:44;;;;;;;10.85;5.72;;;;;;;;;;5059155;28;20036;-81
2021/01/31 10:48:22;;;;;;;11.55;5.28;;;;;;;;;;5078283;28;20015;-79
2021/01/31 10:50:48;;;;;;;;;;;;;;;;;;5060878;28;20641;-79
2021/01/31 10:53:16;;;;;;;11.68;5.28;;;;;;;;;;5077395;28;20568;-83
2021/01/31 10:55:42;;;;;;;12.13;6.28;;;;;;;;;;5062045;28;20035;-81
2021/01/31 10:58:29;;;;;;;11.52;6.40;;;;;;;;;;5061220;28;20024;-81
2021/01/31 11:00:57;;;;;;;15.07;5.93;;;;;;;;;;5076023;28;20115;-81
2021/01/31 11:03:35;;;;;;;11.93;4.95;;;;;;;;;;5074302;28;20028;-80
2021/01/31 11:06:06;;;;;;;10.32;5.53;;;;;;;;;;5058770;28;20033;-82
2021/01/31 11:08:32;;;;;;;11.05;5.93;;;;;;;;;;5036068;28;20024;-79
2021/01/31 11:11:17;;;;;;;8.50;5.03;;;;;;;;;;5060968;28;20155;-83
2021/01/31 11:13:46;;;;;;;9.10;5.55;;;;;;;;;;5061155;28;20565;-83
2021/01/31 11:16:14;;;;;;;11.15;6.00;;;;;;;;;;5053208;28;20473;-85
2021/01/31 11:18:48;;;;;;;9.48;5.43;;;;;;;;;;5060333;28;20028;-84
2021/01/31 11:21:22;;;;;;;11.00;5.80;;;;;;;;;;5077853;28;20036;-82
2021/01/31 11:24:06;;;;;;;0.00;0.00;;;;;;;;;;5076894;28;20062;-81
2021/01/31 11:26:53;;;;;;;0.25;0.25;;;;;;;;;;5047953;28;20873;-83
2021/01/31 11:29:20;;;;;;;0.00;0.00;;;;;;;;;;5050382;28;20033;-82
2021/01/31 11:31:53;;;;;;;3.83;0.60;;;;;;;;;;5067681;28;20034;-85
2021/01/31 11:34:19;;;;;;;0.13;0.13;;;;;;;;;;5053757;28;20024;-82
2021/01/31 11:36:46;;;;;;;0.30;0.30;;;;;;;;;;5052963;28;20035;-83
2021/01/31 11:44:45;;;;;;;0.00;0.00;;;;;;;;;;4982284;28;20176;-61
2021/01/31 11:47:11;;;;;;;0.10;0.10;;;;;;;;;;4986609;28;20125;-62
2021/01/31 11:49:39;;;;;;;0.38;0.38;;;;;;;;;;4988789;28;20029;-61
2021/01/31 11:52:08;;;;;;;0.57;0.57;;;;;;;;;;4990240;28;20165;-61
2021/01/31 11:54:34;;;;;;;1.75;1.10;;;;;;;;;;4975601;28;20111;-63
2021/01/31 11:57:02;;;;;;;0.10;0.10;;;;;;;;;;4993959;28;20441;-64
2021/01/31 11:59:30;;;;;;;0.00;0.00;;;;;;;;;;4978263;28;20252;-63
2021/01/31 12:01:58;;;;;;;0.65;0.65;;;;;;;;;;4991168;28;20041;-63
2021/01/31 12:04:23;;;;;;;1.85;0.47;;;;;;;;;;4993631;28;20583;-64
2021/01/31 12:06:51;;;;;;;0.30;0.30;;;;;;;;;;4992777;28;20120;-62
2021/01/31 12:09:17;;;;;;;0.08;0.08;;;;;;;;;;4990289;28;20773;-62
2021/01/31 12:11:49;;;;;;;1.65;0.55;;;;;;;;;;4990553;28;20209;-64
2021/01/31 12:14:16;;;;;;;0.22;0.22;;;;;;;;;;4991793;28;20034;-63
2021/01/31 12:16:44;;;;;;;0.40;0.40;;;;;;;;;;4987954;28;20195;-63
2021/01/31 12:19:12;;;;;;;0.10;0.03;;;;;;;;;;4991122;28;20084;-63
2021/01/31 12:21:38;;;;;;;0.20;0.20;;;;;;;;;;4988359;28;20022;-64
2021/01/31 12:24:04;;;;;;;0.45;0.45;;;;;;;;;;4992094;28;20040;-63
2021/01/31 12:26:29;;;;;;;0.15;0.15;;;;;;;;;;4988347;28;20041;-64
2021/01/31 12:28:55;;;;;;;1.10;0.45;;;;;;;;;;4991496;28;20276;-64
2021/01/31 12:31:21;;;;;;;0.00;0.00;;;;;;;;;;4990243;28;20041;-63
2021/01/31 12:33:46;;;;;;;0.43;0.43;;;;;;;;;;4992447;28;20033;-63
2021/01/31 12:36:13;;;;;;;0.63;0.63;;;;;;;;;;4990500;28;20037;-63
2021/01/31 12:38:45;;;;;;;0.10;0.10;;;;;;;;;;4990755;28;20072;-64
2021/01/31 12:41:12;;;;;;;0.68;0.40;;;;;;;;;;4991829;28;20057;-64
2021/01/31 12:43:38;;;;;;;0.55;0.35;;;;;;;;;;4952351;28;20094;-64
2021/01/31 12:46:04;;;;;;;0.00;0.00;;;;;;;;;;4906252;28;20027;-64
2021/01/31 12:48:33;;;;;;;0.20;0.20;;;;;;;;;;4907539;28;21031;-65
2021/01/31 12:51:08;;;;;;;0.43;0.43;;;;;;;;;;4905960;28;20224;-65
2021/01/31 12:53:34;;;;;;;0.00;0.00;;;;;;;;;;4895787;28;20325;-62
2021/01/31 12:56:00;;;;;;;0.00;0.00;;;;;;;;;;4910305;28;20348;-65
2021/01/31 12:58:25;;;;;;;0.00;0.00;;;;;;;;;;4909170;28;20725;-65
2021/01/31 13:00:54;;;;;;;0.38;0.38;;;;;;;;;;4906803;28;20085;-64
2021/01/31 13:03:20;;;;;;;1.35;0.50;;;;;;;;;;4907221;28;20025;-66
2021/01/31 13:05:48;;;;;;;0.15;0.15;;;;;;;;;;4908254;28;20105;-66
2021/01/31 13:08:35;;;;;;;0.00;0.00;;;;;;;;;;4907868;28;20032;-63
2021/01/31 13:11:05;;;;;;;0.00;0.00;;;;;;;;;;4921476;28;20032;-64
2021/01/31 13:13:36;;;;;;;0.30;0.30;;;;;;;;;;4896994;28;20059;-65
2021/01/31 13:16:03;;;;;;;0.20;0.20;;;;;;;;;;4891919;28;20040;-64
2021/01/31 13:18:31;;;;;;;0.60;0.60;;;;;;;;;;4918604;28;20093;-64
2021/01/31 13:20:58;;;;;;;0.00;0.00;;;;;;;;;;4922523;28;20502;-64
2021/01/31 13:23:23;;;;;;;0.00;0.00;;;;;;;;;;4912093;28;20210;-64
2021/01/31 13:25:52;;;;;;;0.00;0.00;;;;;;;;;;4898342;28;20051;-63
2021/01/31 13:28:17;;;;;;;0.28;0.28;;;;;;;;;;4926912;28;20040;-65
2021/01/31 13:30:43;;;;;;;0.10;0.10;;;;;;;;;;4910317;28;20041;-64
2021/01/31 13:33:10;;;;;;;0.17;0.17;;;;;;;;;;4910253;28;21750;-64
2021/01/31 13:35:41;;;;;;;0.00;0.00;;;;;;;;;;4910208;28;20031;-63
2021/01/31 13:38:07;;;;;;;0.00;0.00;;;;;;;;;;4897905;28;20158;-64
2021/01/31 13:40:38;;;;;;;1.52;0.75;;;;;;;;;;4911848;28;20122;-64
2021/01/31 13:43:03;;;;;;;0.93;0.65;;;;;;;;;;4913827;28;20051;-65
2021/01/31 13:45:29;;;;;;;0.38;0.38;;;;;;;;;;4910792;28;20036;-64
2021/01/31 13:47:54;;;;;;;0.00;0.00;;;;;;;;;;4895430;28;20063;-64
2021/01/31 13:50:22;;;;;;;0.38;0.38;;;;;;;;;;4914113;28;20040;-64
2021/01/31 13:52:50;;;;;;;0.00;0.00;;;;;;;;;;4912885;28;20031;-65
2021/01/31 13:55:15;;;;;;;0.00;0.00;;;;;;;;;;4923182;28;20087;-66
2021/01/31 13:57:43;;;;;;;0.32;0.32;;;;;;;;;;4898025;28;20263;-64
2021/01/31 14:00:12;;;;;;;0.65;0.65;;;;;;;;;;4896492;28;20403;-64
2021/01/31 14:02:41;;;;;;;0.00;0.00;;;;;;;;;;4912539;28;21756;-65
2021/01/31 14:05:09;;;;;;;0.35;0.35;;;;;;;;;;4914596;28;20070;-66
2021/01/31 14:07:35;;;;;;;0.00;0.00;;;;;;;;;;4910783;28;21801;-65
2021/01/31 14:10:01;;;;;;;0.52;0.52;;;;;;;;;;4909723;28;20065;-65
2021/01/31 14:12:29;;;;;;;0.10;0.10;;;;;;;;;;4907221;28;20028;-65
2021/01/31 14:14:58;;;;;;;0.10;0.10;;;;;;;;;;4911932;28;20036;-66
2021/01/31 14:17:26;;;;;;;0.25;0.20;;;;;;;;;;4910104;28;20379;-64
2021/01/31 14:19:52;;;;;;;0.00;0.00;;;;;;;;;;4908754;28;20764;-65
2021/01/31 14:22:20;;;;;;;0.00;0.00;;;;;;;;;;4909612;28;20136;-65
2021/01/31 14:24:45;;;;;;;0.00;0.00;;;;;;;;;;4924160;28;20133;-66
2021/01/31 14:27:11;;;;;;;0.00;0.00;;;;;;;;;;4897751;28;20040;-67
2021/01/31 14:29:36;;;;;;;0.63;0.50;;;;;;;;;;4910141;28;20388;-65
2021/01/31 14:32:03;;;;;;;1.55;0.85;;;;;;;;;;4897521;28;20036;-66
2021/01/31 14:34:32;;;;;;;0.13;0.13;;;;;;;;;;4897585;28;21045;-66
2021/01/31 14:36:57;;;;;;;0.00;0.00;;;;;;;;;;4886091;28;20035;-65
2021/01/31 14:39:28;;;;;;;0.20;0.20;;;;;;;;;;4910077;28;20336;-65
2021/01/31 14:41:57;;;;;;;0.35;0.35;;;;;;;;;;4917314;28;20046;-66
2021/01/31 14:44:23;;;;;;;0.40;0.40;;;;;;;;;;4915215;28;20326;-66
2021/01/31 14:46:51;;;;;;;0.00;0.00;;;;;;;;;;4909751;28;20035;-65
2021/01/31 14:49:17;;;;;;;0.13;0.13;;;;;;;;;;4909723;28;20043;-67
2021/01/31 14:51:45;;;;;;;0.20;0.20;;;;;;;;;;4910037;28;20085;-66
2021/01/31 14:54:12;;;;;;;0.57;0.57;;;;;;;;;;4913371;28;20047;-65
2021/01/31 14:56:49;;;;;;;0.10;0.10;;;;;;;;;;4913175;28;20513;-66
2021/01/31 14:59:16;;;;;;;6.65;0.75;;;;;;;;;;4925836;28;20110;-66